Terminal Aerodrome Forecast
Issued by NWS Charleston, WV

Current Version | Previous Version | Graphics & Text | Print | Product List | Glossary On
Versions: 1 2 3 4 5 6 7 8 9 10 11 12 13 14 15 16 17 18 19 20 21
000
FTUS41 KRLX 222300
TAFEKN
TAF
KEKN 222329Z 2300/2324 29005KT P6SM SCT025 OVC035
     FM230500 00000KT P6SM BKN025
     FM231000 00000KT P6SM BKN040
     FM231400 00000KT P6SM BKN200
     FM232100 00000KT P6SM BKN080=

USA.gov is the U.S. government's official web portal to all federal, state and local government web resources and services.